sensor_id;sensor_type;location;lat;lon;timestamp;P1;durP1;ratioP1;P2;durP2;ratioP2
16314;SDS011;8266;52.150;4.768;2023-07-22T00:00:30;9.80;;;7.75;;
16314;SDS011;8266;52.150;4.768;2023-07-22T00:02:57;10.52;;;8.68;;
16314;SDS011;8266;52.150;4.768;2023-07-22T00:05:24;9.25;;;8.23;;
16314;SDS011;8266;52.150;4.768;2023-07-22T00:07:51;12.57;;;8.77;;
16314;SDS011;8266;52.150;4.768;2023-07-22T00:10:18;9.40;;;8.23;;
16314;SDS011;8266;52.150;4.768;2023-07-22T00:12:47;9.75;;;7.72;;
16314;SDS011;8266;52.150;4.768;2023-07-22T00:15:14;10.25;;;8.52;;
16314;SDS011;8266;52.150;4.768;2023-07-22T00:17:41;10.98;;;8.57;;
16314;SDS011;8266;52.150;4.768;2023-07-22T00:20:09;10.30;;;8.65;;
16314;SDS011;8266;52.150;4.768;2023-07-22T00:22:36;12.07;;;8.15;;
16314;SDS011;8266;52.150;4.768;2023-07-22T00:25:05;11.77;;;9.07;;
16314;SDS011;8266;52.150;4.768;2023-07-22T00:27:35;10.50;;;8.60;;
16314;SDS011;8266;52.150;4.768;2023-07-22T00:30:04;9.77;;;7.97;;
16314;SDS011;8266;52.150;4.768;2023-07-22T00:32:32;12.25;;;8.20;;
16314;SDS011;8266;52.150;4.768;2023-07-22T00:34:59;10.80;;;8.55;;
16314;SDS011;8266;52.150;4.768;2023-07-22T00:37:26;10.60;;;8.52;;
16314;SDS011;8266;52.150;4.768;2023-07-22T00:39:53;9.32;;;8.15;;
16314;SDS011;8266;52.150;4.768;2023-07-22T00:42:20;10.38;;;9.25;;
16314;SDS011;8266;52.150;4.768;2023-07-22T00:44:47;9.20;;;8.20;;
16314;SDS011;8266;52.150;4.768;2023-07-22T00:47:16;9.27;;;7.82;;
16314;SDS011;8266;52.150;4.768;2023-07-22T00:49:46;8.95;;;7.47;;
16314;SDS011;8266;52.150;4.768;2023-07-22T00:52:15;9.00;;;7.47;;
16314;SDS011;8266;52.150;4.768;2023-07-22T00:54:42;9.38;;;7.85;;
16314;SDS011;8266;52.150;4.768;2023-07-22T00:57:10;9.77;;;7.78;;
16314;SDS011;8266;52.150;4.768;2023-07-22T00:59:38;10.25;;;7.50;;
16314;SDS011;8266;52.150;4.768;2023-07-22T01:02:05;10.43;;;8.65;;
16314;SDS011;8266;52.150;4.768;2023-07-22T01:04:34;9.27;;;7.80;;
16314;SDS011;8266;52.150;4.768;2023-07-22T01:07:01;9.20;;;7.90;;
16314;SDS011;8266;52.150;4.768;2023-07-22T01:09:34;8.98;;;7.95;;
16314;SDS011;8266;52.150;4.768;2023-07-22T01:12:01;10.70;;;8.52;;
16314;SDS011;8266;52.150;4.768;2023-07-22T01:14:31;9.30;;;7.55;;
16314;SDS011;8266;52.150;4.768;2023-07-22T01:16:58;9.45;;;7.80;;
16314;SDS011;8266;52.150;4.768;2023-07-22T01:19:26;8.82;;;7.10;;
16314;SDS011;8266;52.150;4.768;2023-07-22T01:21:56;10.07;;;8.30;;
16314;SDS011;8266;52.150;4.768;2023-07-22T01:24:25;9.90;;;8.15;;
16314;SDS011;8266;52.150;4.768;2023-07-22T01:26:52;10.10;;;8.05;;
16314;SDS011;8266;52.150;4.768;2023-07-22T01:29:19;9.10;;;7.95;;
16314;SDS011;8266;52.150;4.768;2023-07-22T01:31:48;9.45;;;7.97;;
16314;SDS011;8266;52.150;4.768;2023-07-22T01:34:16;8.52;;;7.22;;
16314;SDS011;8266;52.150;4.768;2023-07-22T01:36:44;9.18;;;7.43;;
16314;SDS011;8266;52.150;4.768;2023-07-22T01:39:12;9.82;;;7.40;;
16314;SDS011;8266;52.150;4.768;2023-07-22T01:41:41;10.63;;;8.45;;
16314;SDS011;8266;52.150;4.768;2023-07-22T01:44:08;9.18;;;6.97;;
16314;SDS011;8266;52.150;4.768;2023-07-22T01:46:36;9.25;;;7.47;;
16314;SDS011;8266;52.150;4.768;2023-07-22T01:49:04;8.45;;;7.53;;
16314;SDS011;8266;52.150;4.768;2023-07-22T01:51:33;9.10;;;7.40;;
16314;SDS011;8266;52.150;4.768;2023-07-22T01:54:02;8.20;;;7.03;;
16314;SDS011;8266;52.150;4.768;2023-07-22T01:56:30;10.10;;;8.10;;
16314;SDS011;8266;52.150;4.768;2023-07-22T01:58:58;8.38;;;7.43;;
16314;SDS011;8266;52.150;4.768;2023-07-22T02:01:25;8.18;;;7.15;;
16314;SDS011;8266;52.150;4.768;2023-07-22T02:03:53;8.68;;;7.25;;
16314;SDS011;8266;52.150;4.768;2023-07-22T02:06:20;9.35;;;7.70;;
16314;SDS011;8266;52.150;4.768;2023-07-22T02:08:47;8.43;;;7.15;;
16314;SDS011;8266;52.150;4.768;2023-07-22T02:11:14;7.80;;;6.72;;
16314;SDS011;8266;52.150;4.768;2023-07-22T02:13:42;9.60;;;7.50;;
16314;SDS011;8266;52.150;4.768;2023-07-22T02:16:10;7.18;;;6.43;;
16314;SDS011;8266;52.150;4.768;2023-07-22T02:18:37;7.85;;;6.90;;
16314;SDS011;8266;52.150;4.768;2023-07-22T02:21:04;8.00;;;6.85;;
16314;SDS011;8266;52.150;4.768;2023-07-22T02:23:32;8.30;;;6.75;;
16314;SDS011;8266;52.150;4.768;2023-07-22T02:25:59;8.00;;;6.35;;
16314;SDS011;8266;52.150;4.768;2023-07-22T02:28:27;9.88;;;7.47;;
16314;SDS011;8266;52.150;4.768;2023-07-22T02:30:54;6.97;;;6.13;;
16314;SDS011;8266;52.150;4.768;2023-07-22T02:33:22;8.68;;;6.63;;
16314;SDS011;8266;52.150;4.768;2023-07-22T02:35:49;8.35;;;6.93;;
16314;SDS011;8266;52.150;4.768;2023-07-22T02:38:17;11.75;;;7.45;;
16314;SDS011;8266;52.150;4.768;2023-07-22T02:40:43;7.30;;;6.18;;
16314;SDS011;8266;52.150;4.768;2023-07-22T02:43:10;9.35;;;7.45;;
16314;SDS011;8266;52.150;4.768;2023-07-22T02:45:38;7.70;;;6.55;;
16314;SDS011;8266;52.150;4.768;2023-07-22T02:48:04;8.73;;;7.47;;
16314;SDS011;8266;52.150;4.768;2023-07-22T02:50:33;9.80;;;6.97;;
16314;SDS011;8266;52.150;4.768;2023-07-22T02:53:01;7.72;;;6.07;;
16314;SDS011;8266;52.150;4.768;2023-07-22T02:55:28;7.63;;;6.75;;
16314;SDS011;8266;52.150;4.768;2023-07-22T02:57:56;8.70;;;6.32;;
16314;SDS011;8266;52.150;4.768;2023-07-22T03:00:22;6.85;;;5.70;;
16314;SDS011;8266;52.150;4.768;2023-07-22T03:02:49;7.45;;;6.22;;
16314;SDS011;8266;52.150;4.768;2023-07-22T03:05:17;7.28;;;6.57;;
16314;SDS011;8266;52.150;4.768;2023-07-22T03:07:46;6.75;;;5.68;;
16314;SDS011;8266;52.150;4.768;2023-07-22T03:10:13;6.32;;;5.60;;
16314;SDS011;8266;52.150;4.768;2023-07-22T03:12:40;8.23;;;6.28;;
16314;SDS011;8266;52.150;4.768;2023-07-22T03:15:07;7.50;;;6.32;;
16314;SDS011;8266;52.150;4.768;2023-07-22T03:17:35;6.50;;;5.80;;
16314;SDS011;8266;52.150;4.768;2023-07-22T03:20:02;7.13;;;6.03;;
16314;SDS011;8266;52.150;4.768;2023-07-22T03:22:34;10.77;;;5.85;;
16314;SDS011;8266;52.150;4.768;2023-07-22T03:25:02;8.63;;;5.88;;
16314;SDS011;8266;52.150;4.768;2023-07-22T03:27:33;5.68;;;5.18;;
16314;SDS011;8266;52.150;4.768;2023-07-22T03:30:00;6.03;;;5.35;;
16314;SDS011;8266;52.150;4.768;2023-07-22T03:32:27;6.93;;;5.50;;
16314;SDS011;8266;52.150;4.768;2023-07-22T03:34:54;6.25;;;5.60;;
16314;SDS011;8266;52.150;4.768;2023-07-22T03:37:21;7.30;;;6.05;;
16314;SDS011;8266;52.150;4.768;2023-07-22T03:39:48;6.65;;;5.40;;
16314;SDS011;8266;52.150;4.768;2023-07-22T03:42:17;6.22;;;5.28;;
16314;SDS011;8266;52.150;4.768;2023-07-22T03:44:44;6.13;;;5.28;;
16314;SDS011;8266;52.150;4.768;2023-07-22T03:47:10;5.72;;;5.13;;
16314;SDS011;8266;52.150;4.768;2023-07-22T03:49:38;7.82;;;5.47;;
16314;SDS011;8266;52.150;4.768;2023-07-22T03:52:05;5.25;;;4.57;;
16314;SDS011;8266;52.150;4.768;2023-07-22T03:54:33;6.60;;;4.78;;
16314;SDS011;8266;52.150;4.768;2023-07-22T03:57:00;5.50;;;4.40;;
16314;SDS011;8266;52.150;4.768;2023-07-22T03:59:28;5.30;;;4.80;;
16314;SDS011;8266;52.150;4.768;2023-07-22T04:01:55;4.93;;;4.43;;
16314;SDS011;8266;52.150;4.768;2023-07-22T04:04:22;5.85;;;4.90;;
16314;SDS011;8266;52.150;4.768;2023-07-22T04:06:49;4.75;;;4.25;;
16314;SDS011;8266;52.150;4.768;2023-07-22T04:09:16;5.07;;;4.57;;
16314;SDS011;8266;52.150;4.768;2023-07-22T04:11:43;4.78;;;4.25;;
16314;SDS011;8266;52.150;4.768;2023-07-22T04:14:09;5.30;;;4.03;;
16314;SDS011;8266;52.150;4.768;2023-07-22T04:16:38;4.80;;;4.30;;
16314;SDS011;8266;52.150;4.768;2023-07-22T04:19:05;4.35;;;3.95;;
16314;SDS011;8266;52.150;4.768;2023-07-22T04:21:32;6.35;;;4.07;;
16314;SDS011;8266;52.150;4.768;2023-07-22T04:23:59;4.32;;;3.58;;
16314;SDS011;8266;52.150;4.768;2023-07-22T04:26:26;4.43;;;4.00;;
16314;SDS011;8266;52.150;4.768;2023-07-22T04:28:53;4.70;;;4.22;;
16314;SDS011;8266;52.150;4.768;2023-07-22T04:31:21;3.97;;;3.58;;
16314;SDS011;8266;52.150;4.768;2023-07-22T04:33:49;3.92;;;3.47;;
16314;SDS011;8266;52.150;4.768;2023-07-22T04:36:16;4.90;;;3.25;;
16314;SDS011;8266;52.150;4.768;2023-07-22T04:38:43;3.55;;;3.25;;
16314;SDS011;8266;52.150;4.768;2023-07-22T04:41:10;3.55;;;3.25;;
16314;SDS011;8266;52.150;4.768;2023-07-22T04:43:37;3.45;;;3.13;;
16314;SDS011;8266;52.150;4.768;2023-07-22T04:46:05;3.30;;;2.80;;
16314;SDS011;8266;52.150;4.768;2023-07-22T04:48:32;3.85;;;3.08;;
16314;SDS011;8266;52.150;4.768;2023-07-22T04:51:01;5.05;;;3.20;;
16314;SDS011;8266;52.150;4.768;2023-07-22T04:53:28;3.60;;;2.75;;
16314;SDS011;8266;52.150;4.768;2023-07-22T04:55:55;5.63;;;3.10;;
16314;SDS011;8266;52.150;4.768;2023-07-22T04:58:22;3.78;;;3.47;;
16314;SDS011;8266;52.150;4.768;2023-07-22T05:00:49;5.30;;;3.90;;
16314;SDS011;8266;52.150;4.768;2023-07-22T05:03:16;5.55;;;4.10;;
16314;SDS011;8266;52.150;4.768;2023-07-22T05:05:44;5.47;;;4.60;;
16314;SDS011;8266;52.150;4.768;2023-07-22T05:08:12;8.93;;;5.35;;
16314;SDS011;8266;52.150;4.768;2023-07-22T05:10:39;9.40;;;6.07;;
16314;SDS011;8266;52.150;4.768;2023-07-22T05:13:06;10.82;;;6.05;;
16314;SDS011;8266;52.150;4.768;2023-07-22T05:15:33;7.22;;;5.85;;
16314;SDS011;8266;52.150;4.768;2023-07-22T05:18:00;9.45;;;5.75;;
16314;SDS011;8266;52.150;4.768;2023-07-22T05:20:27;8.70;;;6.85;;
16314;SDS011;8266;52.150;4.768;2023-07-22T05:22:55;8.63;;;6.40;;
16314;SDS011;8266;52.150;4.768;2023-07-22T05:25:23;10.13;;;7.70;;
16314;SDS011;8266;52.150;4.768;2023-07-22T05:27:50;10.90;;;7.65;;
16314;SDS011;8266;52.150;4.768;2023-07-22T05:30:17;13.00;;;7.88;;
16314;SDS011;8266;52.150;4.768;2023-07-22T05:32:44;9.85;;;7.43;;
16314;SDS011;8266;52.150;4.768;2023-07-22T05:35:11;9.48;;;7.85;;
16314;SDS011;8266;52.150;4.768;2023-07-22T05:37:38;10.30;;;8.02;;
16314;SDS011;8266;52.150;4.768;2023-07-22T05:40:05;12.80;;;8.88;;
16314;SDS011;8266;52.150;4.768;2023-07-22T05:42:35;10.27;;;8.15;;
16314;SDS011;8266;52.150;4.768;2023-07-22T05:45:02;11.48;;;9.15;;
16314;SDS011;8266;52.150;4.768;2023-07-22T05:47:29;11.60;;;8.77;;
16314;SDS011;8266;52.150;4.768;2023-07-22T05:49:56;12.43;;;9.70;;
16314;SDS011;8266;52.150;4.768;2023-07-22T05:52:23;12.13;;;8.77;;
16314;SDS011;8266;52.150;4.768;2023-07-22T05:54:51;13.63;;;9.27;;
16314;SDS011;8266;52.150;4.768;2023-07-22T05:57:18;12.10;;;9.20;;
16314;SDS011;8266;52.150;4.768;2023-07-22T05:59:46;12.73;;;8.80;;
16314;SDS011;8266;52.150;4.768;2023-07-22T06:02:13;12.98;;;9.85;;
16314;SDS011;8266;52.150;4.768;2023-07-22T06:04:40;13.13;;;9.93;;
16314;SDS011;8266;52.150;4.768;2023-07-22T06:07:07;12.95;;;9.13;;
16314;SDS011;8266;52.150;4.768;2023-07-22T06:09:34;13.63;;;10.02;;
16314;SDS011;8266;52.150;4.768;2023-07-22T06:12:01;12.52;;;10.05;;
16314;SDS011;8266;52.150;4.768;2023-07-22T06:14:29;14.68;;;10.02;;
16314;SDS011;8266;52.150;4.768;2023-07-22T06:16:58;14.23;;;9.48;;
16314;SDS011;8266;52.150;4.768;2023-07-22T06:19:25;11.93;;;9.55;;
16314;SDS011;8266;52.150;4.768;2023-07-22T06:21:52;11.70;;;9.38;;
16314;SDS011;8266;52.150;4.768;2023-07-22T06:24:19;15.95;;;10.90;;
16314;SDS011;8266;52.150;4.768;2023-07-22T06:26:46;13.98;;;10.25;;
16314;SDS011;8266;52.150;4.768;2023-07-22T06:29:13;12.45;;;9.30;;
16314;SDS011;8266;52.150;4.768;2023-07-22T06:31:40;12.27;;;9.13;;
16314;SDS011;8266;52.150;4.768;2023-07-22T06:34:08;13.40;;;9.07;;
16314;SDS011;8266;52.150;4.768;2023-07-22T06:36:35;12.52;;;9.38;;
16314;SDS011;8266;52.150;4.768;2023-07-22T06:39:02;12.75;;;8.60;;
16314;SDS011;8266;52.150;4.768;2023-07-22T06:41:30;15.02;;;10.23;;
16314;SDS011;8266;52.150;4.768;2023-07-22T06:43:56;13.20;;;9.63;;
16314;SDS011;8266;52.150;4.768;2023-07-22T06:46:23;16.20;;;9.43;;
16314;SDS011;8266;52.150;4.768;2023-07-22T06:48:51;11.45;;;9.07;;
16314;SDS011;8266;52.150;4.768;2023-07-22T06:51:19;12.13;;;9.32;;
16314;SDS011;8266;52.150;4.768;2023-07-22T06:53:46;13.48;;;8.82;;
16314;SDS011;8266;52.150;4.768;2023-07-22T06:56:13;12.20;;;9.35;;
16314;SDS011;8266;52.150;4.768;2023-07-22T06:58:40;13.40;;;8.75;;
16314;SDS011;8266;52.150;4.768;2023-07-22T07:01:07;10.65;;;8.68;;
16314;SDS011;8266;52.150;4.768;2023-07-22T07:03:34;12.20;;;8.70;;
16314;SDS011;8266;52.150;4.768;2023-07-22T07:06:01;10.10;;;8.25;;
16314;SDS011;8266;52.150;4.768;2023-07-22T07:08:29;11.02;;;8.25;;
16314;SDS011;8266;52.150;4.768;2023-07-22T07:10:58;11.13;;;8.98;;
16314;SDS011;8266;52.150;4.768;2023-07-22T07:13:25;12.88;;;8.85;;
16314;SDS011;8266;52.150;4.768;2023-07-22T07:15:52;11.07;;;9.02;;
16314;SDS011;8266;52.150;4.768;2023-07-22T07:18:20;10.88;;;8.90;;
16314;SDS011;8266;52.150;4.768;2023-07-22T07:20:47;10.38;;;8.20;;
16314;SDS011;8266;52.150;4.768;2023-07-22T07:23:16;9.52;;;8.00;;
16314;SDS011;8266;52.150;4.768;2023-07-22T07:25:44;14.07;;;8.68;;
16314;SDS011;8266;52.150;4.768;2023-07-22T07:28:11;13.48;;;8.82;;
16314;SDS011;8266;52.150;4.768;2023-07-22T07:30:40;12.98;;;8.40;;
16314;SDS011;8266;52.150;4.768;2023-07-22T07:33:07;12.60;;;8.63;;
16314;SDS011;8266;52.150;4.768;2023-07-22T07:35:34;12.95;;;8.35;;
16314;SDS011;8266;52.150;4.768;2023-07-22T07:38:01;9.98;;;7.78;;
16314;SDS011;8266;52.150;4.768;2023-07-22T07:40:28;9.57;;;7.43;;
16314;SDS011;8266;52.150;4.768;2023-07-22T07:42:58;11.75;;;8.30;;
16314;SDS011;8266;52.150;4.768;2023-07-22T07:45:25;7.97;;;7.00;;
16314;SDS011;8266;52.150;4.768;2023-07-22T07:47:52;10.23;;;7.45;;
16314;SDS011;8266;52.150;4.768;2023-07-22T07:50:19;12.07;;;7.97;;
16314;SDS011;8266;52.150;4.768;2023-07-22T07:52:46;9.00;;;7.45;;
16314;SDS011;8266;52.150;4.768;2023-07-22T07:55:13;12.25;;;7.97;;
16314;SDS011;8266;52.150;4.768;2023-07-22T07:57:40;11.85;;;7.85;;
16314;SDS011;8266;52.150;4.768;2023-07-22T08:00:09;10.80;;;7.85;;
16314;SDS011;8266;52.150;4.768;2023-07-22T08:02:36;9.60;;;7.68;;
16314;SDS011;8266;52.150;4.768;2023-07-22T08:05:03;11.02;;;8.00;;
16314;SDS011;8266;52.150;4.768;2023-07-22T08:07:31;11.32;;;8.27;;
16314;SDS011;8266;52.150;4.768;2023-07-22T08:09:58;8.45;;;7.55;;
16314;SDS011;8266;52.150;4.768;2023-07-22T08:12:26;9.18;;;7.32;;
16314;SDS011;8266;52.150;4.768;2023-07-22T08:14:53;10.02;;;7.88;;
16314;SDS011;8266;52.150;4.768;2023-07-22T08:17:21;10.35;;;7.88;;
16314;SDS011;8266;52.150;4.768;2023-07-22T08:19:48;15.18;;;6.97;;
16314;SDS011;8266;52.150;4.768;2023-07-22T08:22:15;11.98;;;7.07;;
16314;SDS011;8266;52.150;4.768;2023-07-22T08:24:43;8.30;;;7.50;;
16314;SDS011;8266;52.150;4.768;2023-07-22T08:27:10;8.63;;;6.75;;
16314;SDS011;8266;52.150;4.768;2023-07-22T08:29:36;9.10;;;6.78;;
16314;SDS011;8266;52.150;4.768;2023-07-22T08:32:04;7.82;;;6.75;;
16314;SDS011;8266;52.150;4.768;2023-07-22T08:34:32;7.85;;;6.65;;
16314;SDS011;8266;52.150;4.768;2023-07-22T08:36:59;9.05;;;7.38;;
16314;SDS011;8266;52.150;4.768;2023-07-22T08:39:26;7.75;;;6.60;;
16314;SDS011;8266;52.150;4.768;2023-07-22T08:41:53;7.88;;;6.03;;
16314;SDS011;8266;52.150;4.768;2023-07-22T08:44:22;7.95;;;5.90;;
16314;SDS011;8266;52.150;4.768;2023-07-22T08:46:54;6.97;;;4.90;;
16314;SDS011;8266;52.150;4.768;2023-07-22T08:49:24;5.00;;;4.53;;
16314;SDS011;8266;52.150;4.768;2023-07-22T08:51:54;5.93;;;4.45;;
16314;SDS011;8266;52.150;4.768;2023-07-22T08:54:22;6.72;;;3.97;;
16314;SDS011;8266;52.150;4.768;2023-07-22T08:56:49;6.20;;;3.97;;
16314;SDS011;8266;52.150;4.768;2023-07-22T08:59:17;5.45;;;3.67;;
16314;SDS011;8266;52.150;4.768;2023-07-22T09:01:44;4.38;;;3.38;;
16314;SDS011;8266;52.150;4.768;2023-07-22T09:04:14;6.60;;;3.85;;
16314;SDS011;8266;52.150;4.768;2023-07-22T09:06:41;3.97;;;3.20;;
16314;SDS011;8266;52.150;4.768;2023-07-22T09:09:10;4.95;;;3.38;;
16314;SDS011;8266;52.150;4.768;2023-07-22T09:11:38;4.63;;;2.90;;
16314;SDS011;8266;52.150;4.768;2023-07-22T09:14:05;5.13;;;2.85;;
16314;SDS011;8266;52.150;4.768;2023-07-22T09:16:32;6.35;;;3.28;;
16314;SDS011;8266;52.150;4.768;2023-07-22T09:19:02;6.88;;;3.55;;
16314;SDS011;8266;52.150;4.768;2023-07-22T09:21:30;5.38;;;3.10;;
16314;SDS011;8266;52.150;4.768;2023-07-22T09:24:00;6.03;;;3.30;;
16314;SDS011;8266;52.150;4.768;2023-07-22T09:26:30;5.85;;;3.40;;
16314;SDS011;8266;52.150;4.768;2023-07-22T09:28:59;4.45;;;2.92;;
16314;SDS011;8266;52.150;4.768;2023-07-22T09:31:26;5.22;;;2.65;;
16314;SDS011;8266;52.150;4.768;2023-07-22T09:33:54;2.95;;;2.00;;
16314;SDS011;8266;52.150;4.768;2023-07-22T09:36:35;5.50;;;1.55;;
16314;SDS011;8266;52.150;4.768;2023-07-22T09:39:18;3.05;;;1.63;;
16314;SDS011;8266;52.150;4.768;2023-07-22T09:41:46;6.22;;;2.03;;
16314;SDS011;8266;52.150;4.768;2023-07-22T09:44:14;5.32;;;2.22;;
16314;SDS011;8266;52.150;4.768;2023-07-22T09:46:41;2.63;;;1.80;;
16314;SDS011;8266;52.150;4.768;2023-07-22T09:49:08;2.63;;;1.85;;
16314;SDS011;8266;52.150;4.768;2023-07-22T09:51:36;3.10;;;1.48;;
16314;SDS011;8266;52.150;4.768;2023-07-22T09:54:05;2.85;;;1.70;;
16314;SDS011;8266;52.150;4.768;2023-07-22T09:56:33;3.75;;;1.40;;
16314;SDS011;8266;52.150;4.768;2023-07-22T09:59:11;2.83;;;1.65;;
16314;SDS011;8266;52.150;4.768;2023-07-22T10:01:38;3.00;;;1.70;;
16314;SDS011;8266;52.150;4.768;2023-07-22T10:04:07;3.53;;;1.70;;
16314;SDS011;8266;52.150;4.768;2023-07-22T10:06:36;3.15;;;1.60;;
16314;SDS011;8266;52.150;4.768;2023-07-22T10:09:05;4.75;;;2.13;;
16314;SDS011;8266;52.150;4.768;2023-07-22T10:11:36;3.13;;;1.40;;
16314;SDS011;8266;52.150;4.768;2023-07-22T10:14:05;2.78;;;1.40;;
16314;SDS011;8266;52.150;4.768;2023-07-22T10:16:33;2.90;;;1.40;;
16314;SDS011;8266;52.150;4.768;2023-07-22T10:19:02;2.65;;;1.45;;
16314;SDS011;8266;52.150;4.768;2023-07-22T10:21:31;2.08;;;1.20;;
16314;SDS011;8266;52.150;4.768;2023-07-22T10:24:00;2.15;;;1.25;;
16314;SDS011;8266;52.150;4.768;2023-07-22T10:26:28;1.20;;;1.10;;
16314;SDS011;8266;52.150;4.768;2023-07-22T10:28:55;2.35;;;1.38;;
16314;SDS011;8266;52.150;4.768;2023-07-22T10:31:24;1.83;;;1.25;;
16314;SDS011;8266;52.150;4.768;2023-07-22T10:33:53;1.70;;;1.33;;
16314;SDS011;8266;52.150;4.768;2023-07-22T10:36:20;2.10;;;1.40;;
16314;SDS011;8266;52.150;4.768;2023-07-22T10:38:55;2.17;;;1.27;;
16314;SDS011;8266;52.150;4.768;2023-07-22T10:41:22;1.85;;;1.27;;
16314;SDS011;8266;52.150;4.768;2023-07-22T10:43:53;2.85;;;1.40;;
16314;SDS011;8266;52.150;4.768;2023-07-22T10:46:30;3.28;;;1.58;;
16314;SDS011;8266;52.150;4.768;2023-07-22T10:49:08;1.70;;;1.30;;
16314;SDS011;8266;52.150;4.768;2023-07-22T10:51:37;2.35;;;1.42;;
16314;SDS011;8266;52.150;4.768;2023-07-22T10:54:10;1.73;;;1.30;;
16314;SDS011;8266;52.150;4.768;2023-07-22T10:56:38;2.35;;;1.40;;
16314;SDS011;8266;52.150;4.768;2023-07-22T10:59:07;3.03;;;1.65;;
16314;SDS011;8266;52.150;4.768;2023-07-22T11:01:36;2.55;;;1.60;;
16314;SDS011;8266;52.150;4.768;2023-07-22T11:06:57;4.95;;;1.27;;
16314;SDS011;8266;52.150;4.768;2023-07-22T11:09:32;4.18;;;1.67;;
16314;SDS011;8266;52.150;4.768;2023-07-22T11:12:12;1.98;;;1.48;;
16314;SDS011;8266;52.150;4.768;2023-07-22T11:14:44;3.17;;;1.55;;
16314;SDS011;8266;52.150;4.768;2023-07-22T11:17:15;4.25;;;1.40;;
16314;SDS011;8266;52.150;4.768;2023-07-22T11:19:44;2.63;;;1.33;;
16314;SDS011;8266;52.150;4.768;2023-07-22T11:22:11;2.03;;;1.42;;
16314;SDS011;8266;52.150;4.768;2023-07-22T11:24:38;2.97;;;1.10;;
16314;SDS011;8266;52.150;4.768;2023-07-22T11:27:06;2.55;;;1.02;;
16314;SDS011;8266;52.150;4.768;2023-07-22T11:29:34;1.80;;;0.93;;
16314;SDS011;8266;52.150;4.768;2023-07-22T11:32:01;2.22;;;1.10;;
16314;SDS011;8266;52.150;4.768;2023-07-22T11:34:29;3.75;;;1.27;;
16314;SDS011;8266;52.150;4.768;2023-07-22T11:36:59;1.95;;;0.93;;
16314;SDS011;8266;52.150;4.768;2023-07-22T11:39:26;2.25;;;0.90;;
16314;SDS011;8266;52.150;4.768;2023-07-22T11:41:56;1.15;;;0.80;;
16314;SDS011;8266;52.150;4.768;2023-07-22T11:44:27;3.25;;;1.08;;
16314;SDS011;8266;52.150;4.768;2023-07-22T11:46:57;1.30;;;0.90;;
16314;SDS011;8266;52.150;4.768;2023-07-22T11:49:26;1.52;;;0.95;;
16314;SDS011;8266;52.150;4.768;2023-07-22T11:51:54;1.48;;;0.80;;
16314;SDS011;8266;52.150;4.768;2023-07-22T11:54:24;1.77;;;0.90;;
16314;SDS011;8266;52.150;4.768;2023-07-22T11:56:51;2.15;;;1.00;;
16314;SDS011;8266;52.150;4.768;2023-07-22T11:59:31;2.80;;;1.00;;
16314;SDS011;8266;52.150;4.768;2023-07-22T12:01:59;0.95;;;0.60;;
16314;SDS011;8266;52.150;4.768;2023-07-22T12:04:30;2.40;;;1.25;;
16314;SDS011;8266;52.150;4.768;2023-07-22T12:06:57;3.67;;;1.00;;
16314;SDS011;8266;52.150;4.768;2023-07-22T12:09:25;2.90;;;1.10;;
16314;SDS011;8266;52.150;4.768;2023-07-22T12:11:56;0.77;;;0.70;;
16314;SDS011;8266;52.150;4.768;2023-07-22T12:14:24;1.10;;;0.90;;
16314;SDS011;8266;52.150;4.768;2023-07-22T12:16:59;2.58;;;1.20;;
16314;SDS011;8266;52.150;4.768;2023-07-22T12:19:27;3.28;;;1.00;;
16314;SDS011;8266;52.150;4.768;2023-07-22T12:21:54;1.52;;;1.00;;
16314;SDS011;8266;52.150;4.768;2023-07-22T12:24:21;2.15;;;0.73;;
16314;SDS011;8266;52.150;4.768;2023-07-22T12:26:49;1.45;;;1.10;;
16314;SDS011;8266;52.150;4.768;2023-07-22T12:29:16;2.35;;;0.85;;
16314;SDS011;8266;52.150;4.768;2023-07-22T12:31:43;1.50;;;0.98;;
16314;SDS011;8266;52.150;4.768;2023-07-22T12:34:10;1.55;;;0.90;;
16314;SDS011;8266;52.150;4.768;2023-07-22T12:36:37;2.05;;;0.80;;
16314;SDS011;8266;52.150;4.768;2023-07-22T12:39:04;2.53;;;0.90;;
16314;SDS011;8266;52.150;4.768;2023-07-22T12:41:31;0.80;;;0.80;;
16314;SDS011;8266;52.150;4.768;2023-07-22T12:43:59;2.22;;;1.10;;
16314;SDS011;8266;52.150;4.768;2023-07-22T12:46:26;2.03;;;0.80;;
16314;SDS011;8266;52.150;4.768;2023-07-22T12:48:53;1.50;;;0.93;;
16314;SDS011;8266;52.150;4.768;2023-07-22T12:51:20;3.10;;;0.73;;
16314;SDS011;8266;52.150;4.768;2023-07-22T12:53:47;1.35;;;1.08;;
16314;SDS011;8266;52.150;4.768;2023-07-22T12:56:14;1.80;;;1.00;;
16314;SDS011;8266;52.150;4.768;2023-07-22T12:58:41;1.02;;;0.70;;
16314;SDS011;8266;52.150;4.768;2023-07-22T13:01:10;2.90;;;0.90;;
16314;SDS011;8266;52.150;4.768;2023-07-22T13:03:37;4.15;;;1.10;;
16314;SDS011;8266;52.150;4.768;2023-07-22T13:06:04;1.23;;;0.90;;
16314;SDS011;8266;52.150;4.768;2023-07-22T13:08:31;4.03;;;1.38;;
16314;SDS011;8266;52.150;4.768;2023-07-22T13:10:58;2.10;;;0.90;;
16314;SDS011;8266;52.150;4.768;2023-07-22T13:13:25;1.58;;;0.90;;
16314;SDS011;8266;52.150;4.768;2023-07-22T13:15:52;2.05;;;0.90;;
16314;SDS011;8266;52.150;4.768;2023-07-22T13:18:20;1.45;;;0.70;;
16314;SDS011;8266;52.150;4.768;2023-07-22T13:20:47;2.63;;;0.93;;
16314;SDS011;8266;52.150;4.768;2023-07-22T13:23:14;0.85;;;0.70;;
16314;SDS011;8266;52.150;4.768;2023-07-22T13:25:41;2.70;;;0.98;;
16314;SDS011;8266;52.150;4.768;2023-07-22T13:28:08;2.65;;;0.85;;
16314;SDS011;8266;52.150;4.768;2023-07-22T13:30:35;2.90;;;1.20;;
16314;SDS011;8266;52.150;4.768;2023-07-22T13:33:02;3.33;;;2.30;;
16314;SDS011;8266;52.150;4.768;2023-07-22T13:35:31;2.08;;;1.60;;
16314;SDS011;8266;52.150;4.768;2023-07-22T13:37:58;1.02;;;0.93;;
16314;SDS011;8266;52.150;4.768;2023-07-22T13:40:25;2.33;;;1.02;;
16314;SDS011;8266;52.150;4.768;2023-07-22T13:42:51;2.83;;;1.15;;
16314;SDS011;8266;52.150;4.768;2023-07-22T13:45:19;1.48;;;0.90;;
16314;SDS011;8266;52.150;4.768;2023-07-22T13:47:46;2.65;;;1.23;;
16314;SDS011;8266;52.150;4.768;2023-07-22T13:50:13;1.40;;;0.95;;
16314;SDS011;8266;52.150;4.768;2023-07-22T13:52:41;1.60;;;0.95;;
16314;SDS011;8266;52.150;4.768;2023-07-22T13:55:09;2.10;;;0.77;;
16314;SDS011;8266;52.150;4.768;2023-07-22T13:57:36;1.85;;;0.98;;
16314;SDS011;8266;52.150;4.768;2023-07-22T14:00:03;1.17;;;0.75;;
16314;SDS011;8266;52.150;4.768;2023-07-22T14:02:33;2.10;;;0.95;;
16314;SDS011;8266;52.150;4.768;2023-07-22T14:05:00;2.25;;;1.10;;
16314;SDS011;8266;52.150;4.768;2023-07-22T14:07:28;2.13;;;1.10;;
16314;SDS011;8266;52.150;4.768;2023-07-22T14:09:56;1.85;;;0.93;;
16314;SDS011;8266;52.150;4.768;2023-07-22T14:12:23;2.97;;;1.42;;
16314;SDS011;8266;52.150;4.768;2023-07-22T14:14:50;3.92;;;0.95;;
16314;SDS011;8266;52.150;4.768;2023-07-22T14:17:17;1.27;;;1.10;;
16314;SDS011;8266;52.150;4.768;2023-07-22T14:19:45;2.13;;;1.00;;
16314;SDS011;8266;52.150;4.768;2023-07-22T14:22:12;2.58;;;1.10;;
16314;SDS011;8266;52.150;4.768;2023-07-22T14:24:38;1.23;;;1.00;;
16314;SDS011;8266;52.150;4.768;2023-07-22T14:27:07;2.80;;;1.20;;
16314;SDS011;8266;52.150;4.768;2023-07-22T14:29:34;1.90;;;1.08;;
16314;SDS011;8266;52.150;4.768;2023-07-22T14:32:01;1.77;;;1.17;;
16314;SDS011;8266;52.150;4.768;2023-07-22T14:34:28;1.52;;;1.00;;
16314;SDS011;8266;52.150;4.768;2023-07-22T14:36:55;4.63;;;1.45;;
16314;SDS011;8266;52.150;4.768;2023-07-22T14:39:22;2.03;;;1.20;;
16314;SDS011;8266;52.150;4.768;2023-07-22T14:41:49;1.67;;;1.40;;
16314;SDS011;8266;52.150;4.768;2023-07-22T14:44:18;3.40;;;1.30;;
16314;SDS011;8266;52.150;4.768;2023-07-22T14:46:45;2.20;;;1.50;;
16314;SDS011;8266;52.150;4.768;2023-07-22T14:49:12;1.63;;;1.10;;
16314;SDS011;8266;52.150;4.768;2023-07-22T14:51:39;3.63;;;1.63;;
16314;SDS011;8266;52.150;4.768;2023-07-22T14:54:06;2.78;;;1.48;;
16314;SDS011;8266;52.150;4.768;2023-07-22T14:56:34;2.33;;;1.30;;
16314;SDS011;8266;52.150;4.768;2023-07-22T14:59:01;2.47;;;1.30;;
16314;SDS011;8266;52.150;4.768;2023-07-22T15:01:37;3.47;;;1.55;;
16314;SDS011;8266;52.150;4.768;2023-07-22T15:04:04;2.63;;;1.30;;